Create Tblcommutelog Verified Points Advance Search
| # | Trip ID | Id Commuter | Trip Date | Trip Num | Current Lat | Current Lng | Delta Distance | Current Time | Activity | Activity Confidence | Current Speed | |
|---|---|---|---|---|---|---|---|---|---|---|---|---|
| 72041 | 250904_785945_16514386_0802 | 785945 | (not set) | (not set) | 38.988461775232 | -76.928964476618 | 2.0886 | 2025-09-04 08:13:28 | unknown | 100 | 3.3215016942788 | |
| 72042 | 250904_786243_16514529_0747 | 786243 | (not set) | (not set) | 39.3748375 | -76.6546557 | 6.6574 | 2025-09-04 07:57:37 | in_vehicle | 100 | 5.9903260704355 | |
| 72043 | 250904_786896_0_0725 | 786896 | (not set) | (not set) | 38.942852622504 | -77.285651636495 | 7.047 | 2025-09-04 08:13:31 | in_vehicle | 100 | 14.077266265523 | |
| 72044 | 250904_772328_16515166_0758 | 772328 | (not set) | (not set) | 39.145146086505 | -76.899441721337 | 1.2864 | 2025-09-04 08:13:34 | on_bicycle | 100 | 2.3469561096856 | |
| 72045 | 250904_786896_0_0725 | 786896 | (not set) | (not set) | 38.94417521737 | -77.289478544142 | 7.2725 | 2025-09-04 08:13:42 | in_vehicle | 100 | 14.94452242796 | |
| 72046 | 250904_782405_16511739_0701 | 782405 | (not set) | (not set) | 39.123992876683 | -76.792491252317 | 25.5868 | 2025-09-04 08:13:51 | in_vehicle | 100 | 6.7905263440235 | |
| 72047 | 250904_768637_16414018_0801 | 768637 | (not set) | (not set) | 38.893262554617 | -77.000314502392 | 0.5669 | 2025-09-04 08:14:03 | on_foot | 100 | 0.5900918218638 | |
| 72048 | 250904_786033_16482840_0714 | 786033 | (not set) | (not set) | 39.084469701071 | -77.146230623003 | 38.2341 | 2025-09-04 08:14:08 | in_vehicle | 100 | 0.23246041467362 | |
| 72049 | 250904_786896_0_0726 | 786896 | (not set) | (not set) | 38.947947315558 | -77.301899961272 | 7.995 | 2025-09-04 08:14:18 | in_vehicle | 100 | 14.305256287607 | |
| 72050 | 250904_787384_6461772_0749 | 787384 | (not set) | (not set) | 39.12589061971 | -77.18271954311 | 6.5154 | 2025-09-04 08:14:25 | in_vehicle | 100 | 5.5388164188579 | |
| 72051 | 250904_788381_16460160_0714 | 788381 | (not set) | (not set) | 38.923055475091 | -77.036435801994 | 10.1694 | 2025-09-04 08:14:31 | in_vehicle | 100 | 0 | |
| 72052 | 250904_782405_16511739_0701 | 782405 | (not set) | (not set) | 39.131468067469 | -76.785408233513 | 26.2373 | 2025-09-04 08:14:39 | in_vehicle | 100 | 11.958300177922 | |
| 72053 | 250904_782405_16511739_0701 | 782405 | (not set) | (not set) | 39.13417768596 | -76.784662400223 | 26.4285 | 2025-09-04 08:14:50 | in_vehicle | 100 | 12.73167809597 | |
| 72054 | 250904_772317_6438355_0756 | 772317 | (not set) | (not set) | 38.935219249138 | -77.048186111764 | 1.8057 | 2025-09-04 08:14:55 | on_bicycle | 100 | 3.241034627661 | |
| 72055 | 250904_785175_16514020_0803 | 785175 | (not set) | (not set) | 38.917111024532 | -77.029430865066 | 0.4238 | 2025-09-04 08:15:03 | on_foot | 100 | 0 | |
| 72056 | 250904_770164_16511074_0755 | 770164 | (not set) | (not set) | 38.859273764232 | -77.174139979435 | 4.1618 | 2025-09-04 08:15:12 | on_bicycle | 100 | 3.2678569832003 | |
| 72057 | 250904_784208_16509837_0802 | 784208 | (not set) | (not set) | 38.749728834474 | -77.13693999377 | 0.4064 | 2025-09-04 08:15:20 | on_bicycle | 100 | 0.97007519200336 | |
| 72058 | 250904_782405_16511739_0701 | 782405 | (not set) | (not set) | 39.143977080331 | -76.782532589548 | 27.1185 | 2025-09-04 08:15:26 | in_vehicle | 100 | 14.229259613579 | |
| 72059 | 250904_787847_16499346_0806 | 787847 | (not set) | (not set) | 38.963602718297 | -76.956816318818 | 2.951 | 2025-09-04 08:15:27 | still | 33 | -0.44703925898772 | |
| 72060 | 250904_786896_0_0726 | 786896 | (not set) | (not set) | 38.944919756862 | -77.330068856522 | 9.5504 | 2025-09-04 08:15:36 | in_vehicle | 100 | 14.260552361708 |